Terminal Aerodrome Forecast
Issued by NWS

Home | Current Version | Previous Version | Text Only | Print | Product List | Glossary On
Versions: 1 2 3 4 5 6 7 8 9 10 11 12 13 14 15 16 17 18 19
000
FTUS43 KDLH 201534 AAB
TAFHIB
TAF AMD
KHIB 201534Z 2016/2112 13010KT P6SM OVC020 WS020/18040KT
     FM201700 15009KT P6SM VCSH OVC015 WS020/17040KT
     FM202000 15010KT 3SM SHRA VCTS OVC012CB
     FM202300 16010KT 2SM SHRA VCTS OVC007CB
     FM210100 25008KT 5SM BR VCSH OVC006
     FM210400 29007KT P6SM BKN008=

USA.gov is the U.S. government's official web portal to all federal, state and local government web resources and services.